sensor_id;sensor_type;location;lat;lon;timestamp;pressure;altitude;pressure_sealevel;temperature;humidity
51468;BME280;37545;45.302;-122.946;2023-08-31T00:01:23;101092.25;;;29.61;29.38
51468;BME280;37545;45.302;-122.946;2023-08-31T00:03:51;101094.75;;;29.64;28.97
51468;BME280;37545;45.302;-122.946;2023-08-31T00:06:22;101091.13;;;29.67;29.31
51468;BME280;37545;45.302;-122.946;2023-08-31T00:08:53;101088.41;;;29.68;29.56
51468;BME280;37545;45.302;-122.946;2023-08-31T00:11:21;101087.31;;;29.72;28.98
51468;BME280;37545;45.302;-122.946;2023-08-31T00:13:50;101092.50;;;29.75;29.59
51468;BME280;37545;45.302;-122.946;2023-08-31T00:16:24;101086.75;;;29.84;29.13
51468;BME280;37545;45.302;-122.946;2023-08-31T00:19:01;101086.31;;;29.94;28.70
51468;BME280;37545;45.302;-122.946;2023-08-31T00:21:31;101085.34;;;29.96;29.01
51468;BME280;37545;45.302;-122.946;2023-08-31T00:24:00;101078.41;;;29.92;28.60
51468;BME280;37545;45.302;-122.946;2023-08-31T00:26:28;101074.81;;;29.93;28.95
51468;BME280;37545;45.302;-122.946;2023-08-31T00:29:01;101065.19;;;29.89;29.08
51468;BME280;37545;45.302;-122.946;2023-08-31T00:31:31;101062.91;;;29.81;28.58
51468;BME280;37545;45.302;-122.946;2023-08-31T00:34:00;101058.03;;;29.71;29.09
51468;BME280;37545;45.302;-122.946;2023-08-31T00:36:32;101054.25;;;29.56;29.38
51468;BME280;37545;45.302;-122.946;2023-08-31T00:39:02;101056.53;;;29.44;29.85
51468;BME280;37545;45.302;-122.946;2023-08-31T00:41:36;101060.53;;;29.34;29.73
51468;BME280;37545;45.302;-122.946;2023-08-31T00:44:05;101064.53;;;29.24;29.89
51468;BME280;37545;45.302;-122.946;2023-08-31T00:46:34;101057.16;;;29.10;29.75
51468;BME280;37545;45.302;-122.946;2023-08-31T00:49:05;101053.03;;;29.01;30.25
51468;BME280;37545;45.302;-122.946;2023-08-31T00:51:36;101043.03;;;28.86;30.39
51468;BME280;37545;45.302;-122.946;2023-08-31T00:54:05;101036.63;;;28.70;30.64
51468;BME280;37545;45.302;-122.946;2023-08-31T00:56:34;101032.81;;;28.55;31.13
51468;BME280;37545;45.302;-122.946;2023-08-31T00:59:10;101034.16;;;28.43;31.38
51468;BME280;37545;45.302;-122.946;2023-08-31T01:01:47;101028.69;;;28.24;31.61
51468;BME280;37545;45.302;-122.946;2023-08-31T01:04:26;101015.75;;;28.15;32.85
51468;BME280;37545;45.302;-122.946;2023-08-31T01:07:04;101023.00;;;28.11;32.35
51468;BME280;37545;45.302;-122.946;2023-08-31T01:09:39;101020.75;;;28.01;32.32
51468;BME280;37545;45.302;-122.946;2023-08-31T01:12:15;101022.28;;;27.84;32.43
51468;BME280;37545;45.302;-122.946;2023-08-31T01:14:50;101018.00;;;27.78;32.16
51468;BME280;37545;45.302;-122.946;2023-08-31T01:17:25;101006.06;;;27.67;32.31
51468;BME280;37545;45.302;-122.946;2023-08-31T01:19:57;101013.97;;;27.45;32.84
51468;BME280;37545;45.302;-122.946;2023-08-31T01:22:31;101010.84;;;27.33;33.12
51468;BME280;37545;45.302;-122.946;2023-08-31T01:25:07;101007.41;;;27.30;35.76
51468;BME280;37545;45.302;-122.946;2023-08-31T01:27:37;101009.25;;;27.28;36.08
51468;BME280;37545;45.302;-122.946;2023-08-31T01:30:08;101005.00;;;27.24;35.67
51468;BME280;37545;45.302;-122.946;2023-08-31T01:32:36;101002.44;;;27.21;34.28
51468;BME280;37545;45.302;-122.946;2023-08-31T01:35:08;100999.81;;;27.19;35.17
51468;BME280;37545;45.302;-122.946;2023-08-31T01:37:42;101000.88;;;27.13;35.40
51468;BME280;37545;45.302;-122.946;2023-08-31T01:40:15;101001.09;;;27.07;36.07
51468;BME280;37545;45.302;-122.946;2023-08-31T01:42:48;100997.75;;;27.02;36.47
51468;BME280;37545;45.302;-122.946;2023-08-31T01:45:20;100989.91;;;26.99;36.95
51468;BME280;37545;45.302;-122.946;2023-08-31T01:47:49;100989.19;;;26.94;36.67
51468;BME280;37545;45.302;-122.946;2023-08-31T01:50:18;100983.31;;;26.84;36.02
51468;BME280;37545;45.302;-122.946;2023-08-31T01:52:49;100990.00;;;26.71;37.21
51468;BME280;37545;45.302;-122.946;2023-08-31T01:55:21;100989.56;;;26.57;35.72
51468;BME280;37545;45.302;-122.946;2023-08-31T01:57:49;100995.13;;;26.47;36.87
51468;BME280;37545;45.302;-122.946;2023-08-31T02:00:19;100997.19;;;26.39;37.29
51468;BME280;37545;45.302;-122.946;2023-08-31T02:02:52;100995.56;;;26.35;37.83
51468;BME280;37545;45.302;-122.946;2023-08-31T02:05:20;100992.09;;;26.33;38.24
51468;BME280;37545;45.302;-122.946;2023-08-31T02:07:49;100996.53;;;26.32;38.50
51468;BME280;37545;45.302;-122.946;2023-08-31T02:10:18;100999.09;;;26.34;38.42
51468;BME280;37545;45.302;-122.946;2023-08-31T02:12:51;100998.25;;;26.33;38.52
51468;BME280;37545;45.302;-122.946;2023-08-31T02:15:20;100997.41;;;26.31;38.14
51468;BME280;37545;45.302;-122.946;2023-08-31T02:17:49;100996.59;;;26.29;38.79
51468;BME280;37545;45.302;-122.946;2023-08-31T02:20:17;100986.22;;;26.23;38.71
51468;BME280;37545;45.302;-122.946;2023-08-31T02:22:51;100990.66;;;26.23;38.47
51468;BME280;37545;45.302;-122.946;2023-08-31T02:25:19;100989.00;;;26.19;38.69
51468;BME280;37545;45.302;-122.946;2023-08-31T02:27:49;100996.22;;;26.13;38.26
51468;BME280;37545;45.302;-122.946;2023-08-31T02:30:18;100988.41;;;26.09;38.42
51468;BME280;37545;45.302;-122.946;2023-08-31T02:32:47;100992.16;;;26.02;38.57
51468;BME280;37545;45.302;-122.946;2023-08-31T02:35:23;100983.53;;;25.95;39.18
51468;BME280;37545;45.302;-122.946;2023-08-31T02:37:52;100974.97;;;25.85;38.73
51468;BME280;37545;45.302;-122.946;2023-08-31T02:40:20;100973.31;;;25.81;38.79
51468;BME280;37545;45.302;-122.946;2023-08-31T02:42:52;100972.59;;;25.76;39.21
51468;BME280;37545;45.302;-122.946;2023-08-31T02:45:21;100970.13;;;25.70;38.86
51468;BME280;37545;45.302;-122.946;2023-08-31T02:47:49;100976.47;;;25.64;39.14
51468;BME280;37545;45.302;-122.946;2023-08-31T02:50:18;100974.09;;;25.55;40.58
51468;BME280;37545;45.302;-122.946;2023-08-31T02:52:47;100978.75;;;25.47;41.28
51468;BME280;37545;45.302;-122.946;2023-08-31T02:55:15;100974.53;;;25.40;41.03
51468;BME280;37545;45.302;-122.946;2023-08-31T02:57:45;100969.44;;;25.34;41.08
51468;BME280;37545;45.302;-122.946;2023-08-31T03:00:16;100965.19;;;25.26;41.64
51468;BME280;37545;45.302;-122.946;2023-08-31T03:02:48;100972.41;;;25.21;41.72
51468;BME280;37545;45.302;-122.946;2023-08-31T03:05:16;100972.56;;;25.15;42.36
51468;BME280;37545;45.302;-122.946;2023-08-31T03:07:45;100972.72;;;25.09;42.54
51468;BME280;37545;45.302;-122.946;2023-08-31T03:10:14;100978.19;;;25.03;42.84
51468;BME280;37545;45.302;-122.946;2023-08-31T03:12:42;100961.69;;;24.93;42.86
51468;BME280;37545;45.302;-122.946;2023-08-31T03:15:11;100973.22;;;24.91;43.72
51468;BME280;37545;45.302;-122.946;2023-08-31T03:17:41;100964.56;;;24.85;43.82
51468;BME280;37545;45.302;-122.946;2023-08-31T03:20:14;100962.06;;;24.79;44.81
51468;BME280;37545;45.302;-122.946;2023-08-31T03:22:42;100959.50;;;24.76;44.90
51468;BME280;37545;45.302;-122.946;2023-08-31T03:25:11;100961.38;;;24.71;45.05
51468;BME280;37545;45.302;-122.946;2023-08-31T03:27:39;100947.41;;;24.66;45.64
51468;BME280;37545;45.302;-122.946;2023-08-31T03:30:12;100942.25;;;24.60;45.68
51468;BME280;37545;45.302;-122.946;2023-08-31T03:32:45;100942.44;;;24.54;46.08
51468;BME280;37545;45.302;-122.946;2023-08-31T03:35:13;100949.59;;;24.49;46.04
51468;BME280;37545;45.302;-122.946;2023-08-31T03:37:42;100954.09;;;24.43;46.50
51468;BME280;37545;45.302;-122.946;2023-08-31T03:40:11;100955.06;;;24.41;46.32
51468;BME280;37545;45.302;-122.946;2023-08-31T03:42:40;100957.81;;;24.36;46.26
51468;BME280;37545;45.302;-122.946;2023-08-31T03:45:09;100965.84;;;24.33;46.80
51468;BME280;37545;45.302;-122.946;2023-08-31T03:47:38;100965.88;;;24.30;46.80
51468;BME280;37545;45.302;-122.946;2023-08-31T03:50:09;100973.06;;;24.25;47.34
51468;BME280;37545;45.302;-122.946;2023-08-31T03:52:40;100970.50;;;24.22;47.09
51468;BME280;37545;45.302;-122.946;2023-08-31T03:55:08;100975.03;;;24.17;47.48
51468;BME280;37545;45.302;-122.946;2023-08-31T03:57:37;100973.38;;;24.13;47.43
51468;BME280;37545;45.302;-122.946;2023-08-31T04:00:07;100971.69;;;24.09;47.69
51468;BME280;37545;45.302;-122.946;2023-08-31T04:02:36;100971.78;;;24.06;47.96
51468;BME280;37545;45.302;-122.946;2023-08-31T04:05:05;100977.19;;;23.99;48.16
51468;BME280;37545;45.302;-122.946;2023-08-31T04:07:36;100977.31;;;23.93;48.29
51468;BME280;37545;45.302;-122.946;2023-08-31T04:10:06;100976.56;;;23.88;48.25
51468;BME280;37545;45.302;-122.946;2023-08-31T04:12:34;100976.56;;;23.87;47.96
51468;BME280;37545;45.302;-122.946;2023-08-31T04:15:10;100977.53;;;23.84;48.45
51468;BME280;37545;45.302;-122.946;2023-08-31T04:17:40;100969.69;;;23.79;48.42
51468;BME280;37545;45.302;-122.946;2023-08-31T04:20:08;100979.41;;;23.79;48.61
51468;BME280;37545;45.302;-122.946;2023-08-31T04:22:41;100977.72;;;23.75;49.22
51468;BME280;37545;45.302;-122.946;2023-08-31T04:25:09;100985.72;;;23.70;49.34
51468;BME280;37545;45.302;-122.946;2023-08-31T04:27:38;100985.88;;;23.64;49.41
51468;BME280;37545;45.302;-122.946;2023-08-31T04:30:11;100984.19;;;23.58;50.54
51468;BME280;37545;45.302;-122.946;2023-08-31T04:35:08;100987.09;;;23.46;50.85
51468;BME280;37545;45.302;-122.946;2023-08-31T04:37:40;100983.75;;;23.36;51.55
51468;BME280;37545;45.302;-122.946;2023-08-31T04:40:09;100991.84;;;23.29;51.87
51468;BME280;37545;45.302;-122.946;2023-08-31T04:42:39;100979.69;;;23.20;52.23
51468;BME280;37545;45.302;-122.946;2023-08-31T04:45:11;100981.63;;;23.12;52.36
51468;BME280;37545;45.302;-122.946;2023-08-31T04:47:43;100986.06;;;23.08;52.54
51468;BME280;37545;45.302;-122.946;2023-08-31T04:50:11;100974.72;;;23.05;53.07
51468;BME280;37545;45.302;-122.946;2023-08-31T04:52:41;100972.16;;;23.00;53.46
51468;BME280;37545;45.302;-122.946;2023-08-31T04:55:12;100980.13;;;22.95;53.47
51468;BME280;37545;45.302;-122.946;2023-08-31T04:57:40;100968.75;;;22.90;53.43
51468;BME280;37545;45.302;-122.946;2023-08-31T05:00:10;100960.09;;;22.84;53.78
51468;BME280;37545;45.302;-122.946;2023-08-31T05:02:39;100958.44;;;22.78;54.12
51468;BME280;37545;45.302;-122.946;2023-08-31T05:05:09;100956.78;;;22.72;54.46
51468;BME280;37545;45.302;-122.946;2023-08-31T05:07:41;100950.78;;;22.64;54.68
51468;BME280;37545;45.302;-122.946;2023-08-31T05:10:10;100950.00;;;22.59;55.49
51468;BME280;37545;45.302;-122.946;2023-08-31T05:12:38;100945.66;;;22.55;55.22
51468;BME280;37545;45.302;-122.946;2023-08-31T05:15:08;100936.97;;;22.50;55.78
51468;BME280;37545;45.302;-122.946;2023-08-31T05:17:36;100944.91;;;22.47;56.23
51468;BME280;37545;45.302;-122.946;2023-08-31T05:20:06;100942.31;;;22.44;56.14
51468;BME280;37545;45.302;-122.946;2023-08-31T05:22:36;100924.78;;;22.43;56.36
51468;BME280;37545;45.302;-122.946;2023-08-31T05:25:07;100923.94;;;22.41;56.64
51468;BME280;37545;45.302;-122.946;2023-08-31T05:27:35;100923.19;;;22.32;57.85
51468;BME280;37545;45.302;-122.946;2023-08-31T05:30:07;100916.31;;;22.21;57.81
51468;BME280;37545;45.302;-122.946;2023-08-31T05:32:35;100920.75;;;22.17;58.31
51468;BME280;37545;45.302;-122.946;2023-08-31T05:35:04;100908.56;;;22.11;59.11
51468;BME280;37545;45.302;-122.946;2023-08-31T05:37:33;100911.31;;;22.04;59.32
51468;BME280;37545;45.302;-122.946;2023-08-31T05:40:03;100906.19;;;21.93;59.66
51468;BME280;37545;45.302;-122.946;2023-08-31T05:42:37;100902.78;;;21.85;60.03
51468;BME280;37545;45.302;-122.946;2023-08-31T05:45:07;100912.53;;;21.81;60.56
51468;BME280;37545;45.302;-122.946;2023-08-31T05:47:36;100906.41;;;21.79;60.69
51468;BME280;37545;45.302;-122.946;2023-08-31T05:50:05;100905.56;;;21.77;60.69
51468;BME280;37545;45.302;-122.946;2023-08-31T05:52:37;100895.94;;;21.73;61.43
51468;BME280;37545;45.302;-122.946;2023-08-31T05:55:10;100895.19;;;21.65;61.61
51468;BME280;37545;45.302;-122.946;2023-08-31T05:57:40;100897.91;;;21.60;61.89
51468;BME280;37545;45.302;-122.946;2023-08-31T06:00:11;100897.97;;;21.56;61.89
51468;BME280;37545;45.302;-122.946;2023-08-31T06:02:40;100904.09;;;21.54;61.83
51468;BME280;37545;45.302;-122.946;2023-08-31T06:05:10;100889.22;;;21.52;61.84
51468;BME280;37545;45.302;-122.946;2023-08-31T06:07:42;100881.38;;;21.49;61.97
51468;BME280;37545;45.302;-122.946;2023-08-31T06:10:14;100895.34;;;21.52;62.01
51468;BME280;37545;45.302;-122.946;2023-08-31T06:12:44;100893.66;;;21.48;62.23
51468;BME280;37545;45.302;-122.946;2023-08-31T06:15:12;100895.47;;;21.43;62.30
51468;BME280;37545;45.302;-122.946;2023-08-31T06:17:41;100897.28;;;21.38;62.72
51468;BME280;37545;45.302;-122.946;2023-08-31T06:20:11;100887.63;;;21.37;62.55
51468;BME280;37545;45.302;-122.946;2023-08-31T06:22:42;100878.84;;;21.37;62.41
51468;BME280;37545;45.302;-122.946;2023-08-31T06:25:10;100888.53;;;21.36;62.97
51468;BME280;37545;45.302;-122.946;2023-08-31T06:27:44;100886.78;;;21.35;62.55
51468;BME280;37545;45.302;-122.946;2023-08-31T06:30:15;100878.03;;;21.33;62.66
51468;BME280;37545;45.302;-122.946;2023-08-31T06:32:44;100873.69;;;21.30;63.48
51468;BME280;37545;45.302;-122.946;2023-08-31T06:35:13;100874.63;;;21.25;64.31
51468;BME280;37545;45.302;-122.946;2023-08-31T06:37:42;100867.69;;;21.18;64.59
51468;BME280;37545;45.302;-122.946;2023-08-31T06:40:12;100860.72;;;21.13;64.89
51468;BME280;37545;45.302;-122.946;2023-08-31T06:42:45;100856.38;;;21.11;65.24
51468;BME280;37545;45.302;-122.946;2023-08-31T06:45:14;100854.72;;;21.05;65.22
51468;BME280;37545;45.302;-122.946;2023-08-31T06:47:42;100860.88;;;21.01;65.57
51468;BME280;37545;45.302;-122.946;2023-08-31T06:50:11;100855.63;;;21.00;65.36
51468;BME280;37545;45.302;-122.946;2023-08-31T06:52:40;100860.94;;;20.98;65.35
51468;BME280;37545;45.302;-122.946;2023-08-31T06:55:17;100855.69;;;20.97;65.43
51468;BME280;37545;45.302;-122.946;2023-08-31T06:57:54;100848.66;;;20.96;65.54
51468;BME280;37545;45.302;-122.946;2023-08-31T07:00:25;100847.84;;;20.92;65.48
51468;BME280;37545;45.302;-122.946;2023-08-31T07:02:53;100852.25;;;20.90;65.81
51468;BME280;37545;45.302;-122.946;2023-08-31T07:05:26;100844.38;;;20.88;65.95
51468;BME280;37545;45.302;-122.946;2023-08-31T07:07:56;100843.50;;;20.88;65.75
51468;BME280;37545;45.302;-122.946;2023-08-31T07:10:30;100847.03;;;20.87;66.26
51468;BME280;37545;45.302;-122.946;2023-08-31T07:13:00;100841.78;;;20.84;66.05
51468;BME280;37545;45.302;-122.946;2023-08-31T07:15:28;100840.06;;;20.80;66.11
51468;BME280;37545;45.302;-122.946;2023-08-31T07:17:57;100843.66;;;20.76;66.28
51468;BME280;37545;45.302;-122.946;2023-08-31T07:20:28;100840.19;;;20.70;66.69
51468;BME280;37545;45.302;-122.946;2023-08-31T07:22:59;100836.72;;;20.68;67.03
51468;BME280;37545;45.302;-122.946;2023-08-31T07:25:28;100836.78;;;20.62;67.17
51468;BME280;37545;45.302;-122.946;2023-08-31T07:27:56;100842.09;;;20.58;67.73
51468;BME280;37545;45.302;-122.946;2023-08-31T07:30:27;100839.47;;;20.53;67.75
51468;BME280;37545;45.302;-122.946;2023-08-31T07:32:59;100841.28;;;20.46;68.40
51468;BME280;37545;45.302;-122.946;2023-08-31T07:35:29;100832.59;;;20.41;68.72
51468;BME280;37545;45.302;-122.946;2023-08-31T07:37:58;100838.75;;;20.39;68.54
51468;BME280;37545;45.302;-122.946;2023-08-31T07:40:26;100839.63;;;20.36;69.13
51468;BME280;37545;45.302;-122.946;2023-08-31T07:42:55;100836.16;;;20.33;68.90
51468;BME280;37545;45.302;-122.946;2023-08-31T07:45:23;100833.59;;;20.29;68.56
51468;BME280;37545;45.302;-122.946;2023-08-31T07:47:53;100838.84;;;20.26;68.54
51468;BME280;37545;45.302;-122.946;2023-08-31T07:50:22;100838.88;;;20.23;69.08
51468;BME280;37545;45.302;-122.946;2023-08-31T07:52:50;100834.56;;;20.15;68.96
51468;BME280;37545;45.302;-122.946;2023-08-31T07:55:23;100830.25;;;20.06;70.10
51468;BME280;37545;45.302;-122.946;2023-08-31T07:57:51;100833.88;;;19.94;71.83
51468;BME280;37545;45.302;-122.946;2023-08-31T08:00:20;100832.25;;;19.79;73.34
51468;BME280;37545;45.302;-122.946;2023-08-31T08:02:48;100839.25;;;19.74;73.05
51468;BME280;37545;45.302;-122.946;2023-08-31T08:05:19;100834.91;;;19.75;72.89
51468;BME280;37545;45.302;-122.946;2023-08-31T08:07:47;100833.09;;;19.77;72.99
51468;BME280;37545;45.302;-122.946;2023-08-31T08:10:16;100834.00;;;19.77;72.48
51468;BME280;37545;45.302;-122.946;2023-08-31T08:12:44;100834.00;;;19.74;72.81
51468;BME280;37545;45.302;-122.946;2023-08-31T08:15:13;100826.16;;;19.73;73.32
51468;BME280;37545;45.302;-122.946;2023-08-31T08:17:44;100827.03;;;19.67;73.70
51468;BME280;37545;45.302;-122.946;2023-08-31T08:20:13;100827.06;;;19.62;73.45
51468;BME280;37545;45.302;-122.946;2023-08-31T08:22:44;100822.69;;;19.60;73.84
51468;BME280;37545;45.302;-122.946;2023-08-31T08:25:14;100819.22;;;19.58;73.55
51468;BME280;37545;45.302;-122.946;2023-08-31T08:27:42;100820.09;;;19.54;73.48
51468;BME280;37545;45.302;-122.946;2023-08-31T08:30:11;100821.91;;;19.52;74.06
51468;BME280;37545;45.302;-122.946;2023-08-31T08:32:40;100818.41;;;19.50;73.90
51468;BME280;37545;45.302;-122.946;2023-08-31T08:35:09;100813.16;;;19.50;73.51
51468;BME280;37545;45.302;-122.946;2023-08-31T08:37:37;100805.28;;;19.50;73.36
51468;BME280;37545;45.302;-122.946;2023-08-31T08:40:13;100805.25;;;19.51;73.10
51468;BME280;37545;45.302;-122.946;2023-08-31T08:42:42;100805.25;;;19.53;72.93
51468;BME280;37545;45.302;-122.946;2023-08-31T08:45:13;100802.63;;;19.53;73.63
51468;BME280;37545;45.302;-122.946;2023-08-31T08:47:43;100797.38;;;19.51;73.85
51468;BME280;37545;45.302;-122.946;2023-08-31T08:50:12;100804.38;;;19.52;74.47
51468;BME280;37545;45.302;-122.946;2023-08-31T08:52:42;100793.91;;;19.51;74.30
51468;BME280;37545;45.302;-122.946;2023-08-31T08:55:13;100792.16;;;19.50;74.05
51468;BME280;37545;45.302;-122.946;2023-08-31T08:57:42;100792.16;;;19.50;73.49
51468;BME280;37545;45.302;-122.946;2023-08-31T09:00:11;100783.41;;;19.49;72.84
51468;BME280;37545;45.302;-122.946;2023-08-31T09:02:40;100784.28;;;19.50;72.34
51468;BME280;37545;45.302;-122.946;2023-08-31T09:05:18;100780.78;;;19.51;71.90
51468;BME280;37545;45.302;-122.946;2023-08-31T09:08:02;100771.16;;;19.50;71.76
51468;BME280;37545;45.302;-122.946;2023-08-31T09:10:36;100766.81;;;19.47;71.53
51468;BME280;37545;45.302;-122.946;2023-08-31T09:13:11;100764.16;;;19.49;71.25
51468;BME280;37545;45.302;-122.946;2023-08-31T09:15:44;100759.81;;;19.46;71.63
51468;BME280;37545;45.302;-122.946;2023-08-31T09:18:16;100750.22;;;19.43;72.37
51468;BME280;37545;45.302;-122.946;2023-08-31T09:20:54;100751.13;;;19.35;72.76
51468;BME280;37545;45.302;-122.946;2023-08-31T09:23:23;100739.84;;;19.25;72.65
51468;BME280;37545;45.302;-122.946;2023-08-31T09:25:54;100734.63;;;19.22;73.37
51468;BME280;37545;45.302;-122.946;2023-08-31T09:28:24;100736.38;;;19.20;74.51
51468;BME280;37545;45.302;-122.946;2023-08-31T09:31:03;100733.75;;;19.20;74.49
51468;BME280;37545;45.302;-122.946;2023-08-31T09:33:32;100735.50;;;19.21;74.13
51468;BME280;37545;45.302;-122.946;2023-08-31T09:36:02;100725.88;;;19.24;74.25
51468;BME280;37545;45.302;-122.946;2023-08-31T09:38:31;100720.59;;;19.26;73.90
51468;BME280;37545;45.302;-122.946;2023-08-31T09:41:05;100709.22;;;19.25;74.27
51468;BME280;37545;45.302;-122.946;2023-08-31T09:43:34;100700.50;;;19.27;74.13
51468;BME280;37545;45.302;-122.946;2023-08-31T09:46:04;100703.97;;;19.27;74.22
51468;BME280;37545;45.302;-122.946;2023-08-31T09:48:33;100698.69;;;19.29;74.01
51468;BME280;37545;45.302;-122.946;2023-08-31T09:51:04;100697.84;;;19.28;74.49
51468;BME280;37545;45.302;-122.946;2023-08-31T09:53:36;100694.34;;;19.26;74.45
51468;BME280;37545;45.302;-122.946;2023-08-31T09:56:08;100701.34;;;19.27;74.21
51468;BME280;37545;45.302;-122.946;2023-08-31T09:58:44;100696.97;;;19.28;73.95
51468;BME280;37545;45.302;-122.946;2023-08-31T10:01:13;100697.88;;;19.25;74.40
51468;BME280;37545;45.302;-122.946;2023-08-31T10:03:42;100696.09;;;19.24;74.43
51468;BME280;37545;45.302;-122.946;2023-08-31T10:06:12;100694.41;;;19.20;74.63
51468;BME280;37545;45.302;-122.946;2023-08-31T10:08:41;100702.28;;;19.17;74.65
51468;BME280;37545;45.302;-122.946;2023-08-31T10:11:18;100695.31;;;19.14;75.09
51468;BME280;37545;45.302;-122.946;2023-08-31T10:13:49;100694.44;;;19.14;75.68
51468;BME280;37545;45.302;-122.946;2023-08-31T10:16:18;100694.47;;;19.11;75.96
51468;BME280;37545;45.302;-122.946;2023-08-31T10:18:47;100691.88;;;19.06;76.69
51468;BME280;37545;45.302;-122.946;2023-08-31T10:21:17;100695.41;;;19.02;77.22
51468;BME280;37545;45.302;-122.946;2023-08-31T10:23:46;100691.06;;;18.99;77.25
51468;BME280;37545;45.302;-122.946;2023-08-31T10:26:25;100697.16;;;18.98;77.57
51468;BME280;37545;45.302;-122.946;2023-08-31T10:28:57;100698.06;;;18.97;77.69
51468;BME280;37545;45.302;-122.946;2023-08-31T10:31:29;100698.06;;;18.97;78.68
51468;BME280;37545;45.302;-122.946;2023-08-31T10:33:59;100688.44;;;18.98;78.12
51468;BME280;37545;45.302;-122.946;2023-08-31T10:36:37;100688.41;;;19.01;78.09
51468;BME280;37545;45.302;-122.946;2023-08-31T10:39:10;100687.53;;;19.03;78.05
51468;BME280;37545;45.302;-122.946;2023-08-31T10:41:51;100687.50;;;19.07;77.62
51468;BME280;37545;45.302;-122.946;2023-08-31T10:44:21;100689.25;;;19.04;77.96
51468;BME280;37545;45.302;-122.946;2023-08-31T10:46:50;100683.16;;;19.02;77.98
51468;BME280;37545;45.302;-122.946;2023-08-31T10:49:20;100685.81;;;18.99;77.93
51468;BME280;37545;45.302;-122.946;2023-08-31T10:51:50;100680.63;;;18.90;77.83
51468;BME280;37545;45.302;-122.946;2023-08-31T10:54:23;100685.00;;;18.87;78.81
51468;BME280;37545;45.302;-122.946;2023-08-31T10:57:06;100681.53;;;18.83;78.62
51468;BME280;37545;45.302;-122.946;2023-08-31T10:59:44;100680.69;;;18.81;78.58
51468;BME280;37545;45.302;-122.946;2023-08-31T11:02:30;100685.03;;;18.83;78.24
51468;BME280;37545;45.302;-122.946;2023-08-31T11:05:06;100683.28;;;18.86;78.46
51468;BME280;37545;45.302;-122.946;2023-08-31T11:07:36;100679.75;;;18.87;78.40
51468;BME280;37545;45.302;-122.946;2023-08-31T11:10:14;100676.28;;;18.88;78.26
51468;BME280;37545;45.302;-122.946;2023-08-31T11:12:45;100674.47;;;18.91;79.41
51468;BME280;37545;45.302;-122.946;2023-08-31T11:15:14;100673.63;;;18.92;80.02
51468;BME280;37545;45.302;-122.946;2023-08-31T11:17:44;100674.50;;;18.88;81.26
51468;BME280;37545;45.302;-122.946;2023-08-31T11:20:17;100668.44;;;18.80;82.36
51468;BME280;37545;45.302;-122.946;2023-08-31T11:22:48;100670.19;;;18.78;82.60
51468;BME280;37545;45.302;-122.946;2023-08-31T11:25:17;100672.78;;;18.82;82.09
51468;BME280;37545;45.302;-122.946;2023-08-31T11:27:58;100658.84;;;18.77;82.38
51468;BME280;37545;45.302;-122.946;2023-08-31T11:30:27;100670.16;;;18.84;82.72
51468;BME280;37545;45.302;-122.946;2023-08-31T11:33:02;100665.81;;;18.81;83.63
51468;BME280;37545;45.302;-122.946;2023-08-31T11:35:33;100671.94;;;18.77;84.07
51468;BME280;37545;45.302;-122.946;2023-08-31T11:38:02;100657.09;;;18.70;84.64
51468;BME280;37545;45.302;-122.946;2023-08-31T11:40:31;100660.59;;;18.72;85.12
51468;BME280;37545;45.302;-122.946;2023-08-31T11:43:01;100656.22;;;18.73;85.07
51468;BME280;37545;45.302;-122.946;2023-08-31T11:45:35;100650.97;;;18.74;84.62
51468;BME280;37545;45.302;-122.946;2023-08-31T11:48:05;100650.94;;;18.76;84.97
51468;BME280;37545;45.302;-122.946;2023-08-31T11:50:34;100654.47;;;18.78;85.17
51468;BME280;37545;45.302;-122.946;2023-08-31T11:53:03;100644.88;;;18.78;85.57
51468;BME280;37545;45.302;-122.946;2023-08-31T11:55:33;100630.88;;;18.78;85.77
51468;BME280;37545;45.302;-122.946;2023-08-31T11:58:08;100623.91;;;18.74;85.77
51468;BME280;37545;45.302;-122.946;2023-08-31T12:00:36;100630.88;;;18.69;86.56
51468;BME280;37545;45.302;-122.946;2023-08-31T12:03:07;100616.94;;;18.65;87.33
51468;BME280;37545;45.302;-122.946;2023-08-31T12:05:46;100609.97;;;18.61;86.63
51468;BME280;37545;45.302;-122.946;2023-08-31T12:08:15;100615.22;;;18.62;87.47
51468;BME280;37545;45.302;-122.946;2023-08-31T12:10:45;100612.59;;;18.61;87.45
51468;BME280;37545;45.302;-122.946;2023-08-31T12:13:16;100605.63;;;18.58;88.09
51468;BME280;37545;45.302;-122.946;2023-08-31T12:15:53;100609.16;;;18.54;89.06
51468;BME280;37545;45.302;-122.946;2023-08-31T12:18:21;100606.53;;;18.54;88.92
51468;BME280;37545;45.302;-122.946;2023-08-31T12:20:51;100600.41;;;18.52;88.67
51468;BME280;37545;45.302;-122.946;2023-08-31T12:23:21;100603.06;;;18.49;88.50
51468;BME280;37545;45.302;-122.946;2023-08-31T12:25:50;100583.84;;;18.47;87.82
51468;BME280;37545;45.302;-122.946;2023-08-31T12:28:22;100594.34;;;18.46;87.87
51468;BME280;37545;45.302;-122.946;2023-08-31T12:30:51;100588.25;;;18.42;88.35
51468;BME280;37545;45.302;-122.946;2023-08-31T12:33:31;100588.25;;;18.39;87.74
51468;BME280;37545;45.302;-122.946;2023-08-31T12:35:59;100583.06;;;18.37;88.26
51468;BME280;37545;45.302;-122.946;2023-08-31T12:38:28;100592.66;;;18.35;89.10
51468;BME280;37545;45.302;-122.946;2023-08-31T12:40:58;100581.31;;;18.35;88.85